createdAt,value
2022-09-05T00:00:07.669Z,15.81
2022-09-05T00:02:41.862Z,15.82
2022-09-05T00:05:26.585Z,15.77
2022-09-05T00:08:07.833Z,15.74
2022-09-05T00:11:18.057Z,15.73
2022-09-05T00:13:42.711Z,15.68
2022-09-05T00:16:24.616Z,15.66
2022-09-05T00:24:25.259Z,15.62
2022-09-05T00:24:25.377Z,15.53
2022-09-05T00:25:31.363Z,15.53
2022-09-05T00:28:26.826Z,15.51
2022-09-05T00:31:53.775Z,15.49
2022-09-05T00:34:21.522Z,15.45
2022-09-05T00:36:54.911Z,15.39
2022-09-05T00:39:26.381Z,15.40
2022-09-05T00:41:56.812Z,15.36
2022-09-05T00:44:28.633Z,15.26
2022-09-05T00:47:04.083Z,15.29
2022-09-05T00:49:39.543Z,15.27
2022-09-05T00:52:25.349Z,15.17
2022-09-05T00:55:04.061Z,15.21
2022-09-05T00:58:02.702Z,15.18
2022-09-05T01:00:53.049Z,15.09
2022-09-05T01:03:58.418Z,15.09
2022-09-05T01:06:42.606Z,15.02
2022-09-05T01:09:32.339Z,15.03
2022-09-05T01:12:23.563Z,15.01
2022-09-05T01:15:32.954Z,14.99
2022-09-05T01:18:43.907Z,14.88
2022-09-05T01:21:34.939Z,14.89
2022-09-05T01:24:31.550Z,14.85
2022-09-05T01:28:08.366Z,14.83
2022-09-05T01:30:32.204Z,14.78
2022-09-05T01:33:10.071Z,14.78
2022-09-05T01:36:03.698Z,14.75
2022-09-05T01:38:48.304Z,14.71
2022-09-05T01:41:51.417Z,14.67
2022-09-05T01:44:55.440Z,14.65
2022-09-05T01:47:29.451Z,14.61
2022-09-05T01:50:09.352Z,14.60
2022-09-05T01:52:57.603Z,14.60
2022-09-05T01:55:27.396Z,14.57
2022-09-05T01:58:33.793Z,14.55
2022-09-05T02:01:27.947Z,14.48
2022-09-05T02:04:29.174Z,14.47
2022-09-05T02:07:19.234Z,14.49
2022-09-05T02:10:31.206Z,14.43
2022-09-05T02:13:17.923Z,14.43
2022-09-05T02:16:04.256Z,14.40
2022-09-05T02:18:36.495Z,14.37
2022-09-05T02:21:09.543Z,14.35
2022-09-05T02:24:03.086Z,14.32
2022-09-05T02:26:36.916Z,14.29
2022-09-05T02:29:28.432Z,14.26
2022-09-05T02:32:17.071Z,14.27
2022-09-05T02:35:45.997Z,14.23
2022-09-05T02:41:49.923Z,14.23
2022-09-05T02:45:06.887Z,14.26
2022-09-05T02:45:07.530Z,14.20
2022-09-05T02:47:33.871Z,14.20
2022-09-05T02:52:30.647Z,14.18
2022-09-05T02:57:41.150Z,14.15
2022-09-05T02:57:46.253Z,14.12
2022-09-05T02:59:06.097Z,14.08
2022-09-05T03:02:00.707Z,14.03
2022-09-05T03:04:51.812Z,14.03
2022-09-05T03:07:46.708Z,14.04
2022-09-05T03:10:54.722Z,14.10
2022-09-05T03:13:31.363Z,14.06
2022-09-05T03:16:39.185Z,14.03
2022-09-05T03:19:46.335Z,13.98
2022-09-05T03:22:22.759Z,13.96
2022-09-05T03:25:10.630Z,13.91
2022-09-05T03:28:03.373Z,13.90
2022-09-05T03:30:41.192Z,13.89
2022-09-05T03:33:45.064Z,13.89
2022-09-05T03:36:30.442Z,13.90
2022-09-05T03:39:22.710Z,13.93
2022-09-05T03:42:14.863Z,13.91
2022-09-05T03:44:56.086Z,13.83
2022-09-05T03:47:22.540Z,13.87
2022-09-05T03:55:35.348Z,13.88
2022-09-05T03:57:10.994Z,13.87
2022-09-05T03:57:26.494Z,13.79
2022-09-05T03:59:46.330Z,13.77
2022-09-05T04:07:27.005Z,13.76
2022-09-05T04:08:17.880Z,13.72
2022-09-05T04:08:41.782Z,13.73
2022-09-05T04:11:17.240Z,13.72
2022-09-05T04:13:53.517Z,13.76
2022-09-05T04:16:33.549Z,13.81
2022-09-05T04:19:16.386Z,13.74
2022-09-05T04:22:07.485Z,13.81
2022-09-05T04:25:00.392Z,13.79
2022-09-05T04:27:49.145Z,13.86
2022-09-05T04:30:38.846Z,13.93
2022-09-05T04:33:15.565Z,13.96
2022-09-05T04:35:57.407Z,13.97
2022-09-05T04:38:42.113Z,13.97
2022-09-05T04:41:14.268Z,13.99
2022-09-05T04:43:43.606Z,14.11
2022-09-05T04:46:28.793Z,14.13
2022-09-05T04:49:04.484Z,14.13
2022-09-05T04:52:31.477Z,14.14
2022-09-05T04:55:13.532Z,14.11
2022-09-05T04:57:55.289Z,14.09
2022-09-05T05:06:06.006Z,14.08
2022-09-05T05:06:17.342Z,14.04
2022-09-05T05:06:45.460Z,14.07
2022-09-05T05:09:16.000Z,14.08
2022-09-05T05:17:55.060Z,14.11
2022-09-05T05:18:11.988Z,14.10
2022-09-05T05:18:39.553Z,14.09
2022-09-05T05:20:54.039Z,14.09
2022-09-05T05:23:33.202Z,14.02
2022-09-05T05:26:02.865Z,14.00
2022-09-05T05:28:49.457Z,14.10
2022-09-05T05:31:27.697Z,14.07
2022-09-05T05:33:57.208Z,14.10
2022-09-05T05:36:46.888Z,14.13
2022-09-05T05:39:21.285Z,14.22
2022-09-05T05:41:54.659Z,14.31
2022-09-05T05:44:36.887Z,14.45
2022-09-05T05:47:11.958Z,14.85
2022-09-05T05:49:54.230Z,15.15
2022-09-05T05:52:45.737Z,15.67
2022-09-05T05:55:52.298Z,15.97
2022-09-05T05:58:29.337Z,16.46
2022-09-05T06:01:42.429Z,16.89
2022-09-05T06:04:48.122Z,17.33
2022-09-05T06:09:39.412Z,17.78
2022-09-05T06:14:53.130Z,18.02
2022-09-05T06:15:08.976Z,18.13
2022-09-05T06:17:59.516Z,18.47
2022-09-05T06:22:11.183Z,18.72
2022-09-05T06:23:53.845Z,19.04
2022-09-05T06:26:26.245Z,19.17
2022-09-05T06:29:01.403Z,19.33
2022-09-05T06:31:55.327Z,19.54
2022-09-05T06:34:35.840Z,19.88
2022-09-05T06:37:20.470Z,19.96
2022-09-05T06:40:00.184Z,19.88
2022-09-05T06:42:46.459Z,20.08
2022-09-05T06:45:30.109Z,20.05
2022-09-05T06:48:10.200Z,20.21
2022-09-05T06:51:09.492Z,20.41
2022-09-05T06:53:56.606Z,20.53
2022-09-05T06:56:33.882Z,20.51
2022-09-05T06:59:41.547Z,20.56
2022-09-05T07:02:58.510Z,20.68
2022-09-05T07:05:39.625Z,20.71
2022-09-05T07:08:35.136Z,20.49
2022-09-05T07:11:45.380Z,20.28
2022-09-05T07:14:20.702Z,20.31
2022-09-05T07:16:53.417Z,20.43
2022-09-05T07:19:30.996Z,20.27
2022-09-05T07:22:46.722Z,20.33
2022-09-05T07:25:09.246Z,20.47
2022-09-05T07:28:29.310Z,20.62
2022-09-05T07:31:03.636Z,20.63
2022-09-05T07:33:31.545Z,20.91
2022-09-05T07:36:10.621Z,21.17
2022-09-05T07:38:52.104Z,21.39
2022-09-05T07:41:25.162Z,21.51
2022-09-05T07:44:06.524Z,21.39
2022-09-05T07:46:37.533Z,21.28
2022-09-05T07:49:12.531Z,21.21
2022-09-05T07:56:50.946Z,21.14
2022-09-05T07:56:59.520Z,21.71
2022-09-05T07:57:50.953Z,22.18
2022-09-05T08:00:25.695Z,22.49
2022-09-05T08:02:55.098Z,22.72
2022-09-05T08:05:34.649Z,22.74
2022-09-05T08:08:07.971Z,23.12
2022-09-05T08:11:25.533Z,23.41
2022-09-05T08:13:53.673Z,23.57
2022-09-05T08:16:42.278Z,23.81
2022-09-05T08:19:20.893Z,24.01
2022-09-05T08:21:51.702Z,24.16
2022-09-05T08:24:32.934Z,24.37
2022-09-05T08:27:06.802Z,24.41
2022-09-05T08:30:22.597Z,24.58
2022-09-05T08:32:57.545Z,24.70
2022-09-05T08:35:43.031Z,24.88
2022-09-05T08:38:12.273Z,25.10
2022-09-05T08:41:05.805Z,25.32
2022-09-05T08:46:36.945Z,25.29
2022-09-05T08:47:19.511Z,25.42
2022-09-05T08:50:15.886Z,25.52
2022-09-05T08:53:04.495Z,25.59
2022-09-05T08:56:11.307Z,25.69
2022-09-05T08:59:28.409Z,25.81
2022-09-05T09:02:47.304Z,25.68
2022-09-05T09:05:23.841Z,25.95
2022-09-05T09:07:58.723Z,25.96
2022-09-05T09:10:43.750Z,26.12
2022-09-05T09:13:52.464Z,26.07
2022-09-05T09:16:39.708Z,26.24
2022-09-05T09:19:18.869Z,26.32
2022-09-05T09:22:08.275Z,26.44
2022-09-05T09:24:49.913Z,26.33
2022-09-05T09:28:46.735Z,26.56
2022-09-05T09:30:51.732Z,26.63
2022-09-05T09:33:46.106Z,26.29
2022-09-05T09:36:35.975Z,26.33
2022-09-05T09:39:37.629Z,26.49
2022-09-05T09:42:32.908Z,26.56
2022-09-05T09:45:28.087Z,26.75
2022-09-05T09:48:10.897Z,27.13
2022-09-05T09:51:00.570Z,27.53
2022-09-05T09:53:29.916Z,27.53
2022-09-05T09:56:33.041Z,27.80
2022-09-05T09:59:02.368Z,27.98
2022-09-05T10:02:26.771Z,28.03
2022-09-05T10:10:35.026Z,28.24
2022-09-05T10:10:44.212Z,28.36
2022-09-05T10:11:52.422Z,28.47
2022-09-05T10:14:55.662Z,28.39
2022-09-05T10:17:43.586Z,28.65
2022-09-05T10:20:56.890Z,28.46
2022-09-05T10:23:44.754Z,28.64
2022-09-05T10:26:37.829Z,28.65
2022-09-05T10:29:34.927Z,28.51
2022-09-05T10:35:19.838Z,28.69
2022-09-05T10:35:22.502Z,28.58
2022-09-05T10:38:14.784Z,28.68
2022-09-05T10:41:09.650Z,28.73
2022-09-05T10:43:44.263Z,28.58
2022-09-05T10:46:52.689Z,28.61
2022-09-05T10:49:30.020Z,28.59
2022-09-05T10:52:34.601Z,28.74
2022-09-05T10:55:25.029Z,28.73
2022-09-05T10:58:13.557Z,28.68
2022-09-05T11:02:20.741Z,28.83
2022-09-05T11:04:14.193Z,28.97
2022-09-05T11:06:52.302Z,29.22
2022-09-05T11:09:56.566Z,29.29
2022-09-05T11:12:44.799Z,29.21
2022-09-05T11:16:04.710Z,29.21
2022-09-05T11:18:54.615Z,29.15
2022-09-05T11:21:30.481Z,29.12
2022-09-05T11:24:06.792Z,29.27
2022-09-05T11:27:23.564Z,29.13
2022-09-05T11:29:54.327Z,29.16
2022-09-05T11:36:32.405Z,29.30
2022-09-05T11:39:54.427Z,29.34
2022-09-05T11:40:07.750Z,29.26
2022-09-05T11:41:52.484Z,29.33
2022-09-05T11:44:25.165Z,29.36
2022-09-05T11:47:44.339Z,29.39
2022-09-05T11:50:48.932Z,29.39
2022-09-05T11:54:06.661Z,29.33
2022-09-05T11:57:32.677Z,28.85
2022-09-05T12:00:17.218Z,28.73
2022-09-05T12:02:43.939Z,28.69
2022-09-05T12:05:50.819Z,28.80
2022-09-05T12:08:39.698Z,28.79
2022-09-05T12:11:13.551Z,28.93
2022-09-05T12:13:51.170Z,28.69
2022-09-05T12:16:41.116Z,28.34
2022-09-05T12:19:34.527Z,28.15
2022-09-05T12:22:24.339Z,28.08
2022-09-05T12:27:53.797Z,28.17
2022-09-05T12:30:57.199Z,28.55
2022-09-05T12:36:04.324Z,28.55
2022-09-05T12:40:54.722Z,28.75
2022-09-05T12:40:58.169Z,28.94
2022-09-05T12:42:10.742Z,28.00
2022-09-05T12:42:51.077Z,29.15
2022-09-05T12:45:50.058Z,28.98
2022-09-05T12:48:38.391Z,29.21
2022-09-05T12:51:46.396Z,29.56
2022-09-05T12:54:33.218Z,29.84
2022-09-05T12:59:28.644Z,30.14
2022-09-05T13:03:06.813Z,30.34
2022-09-05T13:03:28.310Z,30.39
2022-09-05T13:06:02.532Z,30.37
2022-09-05T13:08:44.016Z,30.35
2022-09-05T13:14:49.038Z,30.51
2022-09-05T13:14:56.313Z,30.38
2022-09-05T13:17:06.470Z,29.96
2022-09-05T13:19:40.399Z,29.71
2022-09-05T13:22:10.128Z,29.32
2022-09-05T13:24:41.519Z,29.13
2022-09-05T13:27:39.208Z,28.92
2022-09-05T13:31:19.812Z,28.88
2022-09-05T13:37:57.973Z,28.86
2022-09-05T13:38:06.303Z,28.86
2022-09-05T13:39:09.726Z,28.93
2022-09-05T13:41:43.711Z,28.96
2022-09-05T13:44:26.303Z,29.08
2022-09-05T13:47:36.157Z,29.18
2022-09-05T13:50:23.105Z,29.14
2022-09-05T13:52:58.322Z,29.14
2022-09-05T13:55:37.925Z,29.34
2022-09-05T13:58:07.300Z,29.43
2022-09-05T14:00:37.100Z,29.47
2022-09-05T14:03:31.906Z,29.55
2022-09-05T14:06:47.394Z,29.61
2022-09-05T14:09:40.233Z,29.54
2022-09-05T14:12:27.838Z,29.41
2022-09-05T14:15:13.711Z,29.27
2022-09-05T14:17:53.227Z,29.18
2022-09-05T14:20:43.000Z,29.10
2022-09-05T14:23:15.435Z,29.11
2022-09-05T14:25:50.108Z,29.01
2022-09-05T14:28:26.060Z,28.91
2022-09-05T14:37:34.393Z,28.80
2022-09-05T14:37:40.949Z,28.94
2022-09-05T14:37:51.499Z,28.83
2022-09-05T14:40:30.567Z,28.77
2022-09-05T14:43:40.543Z,28.79
2022-09-05T14:46:25.033Z,28.73
2022-09-05T14:48:59.039Z,28.75
2022-09-05T14:51:30.769Z,28.68
2022-09-05T14:54:10.287Z,28.57
2022-09-05T15:01:07.779Z,28.53
2022-09-05T15:02:45.356Z,28.63
2022-09-05T15:02:51.877Z,28.49
2022-09-05T15:05:28.672Z,28.48
2022-09-05T15:08:18.311Z,28.42
2022-09-05T15:12:17.000Z,28.38
2022-09-05T15:14:03.548Z,28.36
2022-09-05T15:16:32.788Z,28.25
2022-09-05T15:18:59.431Z,28.23
2022-09-05T15:21:33.625Z,28.12
2022-09-05T15:24:01.317Z,28.10
2022-09-05T15:26:31.503Z,28.04
2022-09-05T15:29:14.649Z,28.09
2022-09-05T15:31:42.188Z,28.06
2022-09-05T15:34:26.220Z,28.10
2022-09-05T15:36:56.576Z,28.10
2022-09-05T15:39:41.938Z,27.94
2022-09-05T15:42:19.285Z,27.79
2022-09-05T15:45:08.838Z,27.69
2022-09-05T15:47:34.055Z,27.54
2022-09-05T15:50:07.770Z,27.56
2022-09-05T15:52:53.518Z,27.50
2022-09-05T15:55:24.665Z,27.44
2022-09-05T15:57:58.927Z,27.40
2022-09-05T16:00:53.219Z,27.34
2022-09-05T16:04:12.867Z,27.26
2022-09-05T16:10:36.985Z,27.08
2022-09-05T16:10:42.219Z,26.89
2022-09-05T16:12:15.912Z,26.66
2022-09-05T16:16:50.114Z,26.45
2022-09-05T16:23:12.304Z,26.33
2022-09-05T16:23:26.018Z,26.24
2022-09-05T16:23:40.507Z,26.18
2022-09-05T16:26:24.998Z,26.10
2022-09-05T16:29:02.349Z,26.03
2022-09-05T16:31:52.035Z,25.98
2022-09-05T16:34:30.412Z,25.96
2022-09-05T16:37:09.776Z,25.87
2022-09-05T16:39:42.865Z,25.82
2022-09-05T16:42:47.517Z,25.76
2022-09-05T16:45:32.269Z,25.72
2022-09-05T16:48:05.211Z,25.67
2022-09-05T16:50:36.870Z,25.62
2022-09-05T16:53:30.325Z,25.54
2022-09-05T16:56:02.759Z,25.46
2022-09-05T16:58:49.268Z,25.39
2022-09-05T17:01:41.335Z,25.33
2022-09-05T17:04:20.688Z,25.22
2022-09-05T17:06:54.550Z,25.17
2022-09-05T17:09:27.358Z,25.08
2022-09-05T17:12:02.020Z,25.06
2022-09-05T17:14:35.235Z,24.95
2022-09-05T17:17:43.955Z,24.94
2022-09-05T17:20:09.291Z,25.01
2022-09-05T17:28:54.068Z,24.93
2022-09-05T17:29:25.247Z,24.96
2022-09-05T17:29:27.609Z,24.89
2022-09-05T17:31:58.292Z,24.79
2022-09-05T17:34:41.016Z,24.75
2022-09-05T17:37:40.073Z,24.70
2022-09-05T17:40:06.992Z,24.63
2022-09-05T17:42:40.060Z,24.56
2022-09-05T17:45:35.409Z,24.49
2022-09-05T17:48:02.252Z,24.40
2022-09-05T17:50:33.186Z,24.38
2022-09-05T17:53:26.328Z,24.33
2022-09-05T17:55:49.588Z,24.23
2022-09-05T17:58:22.346Z,24.16
2022-09-05T18:00:52.003Z,24.08
2022-09-05T18:03:44.882Z,24.02
2022-09-05T18:06:14.490Z,23.92
2022-09-05T18:08:50.150Z,23.82
2022-09-05T18:11:25.456Z,23.72
2022-09-05T18:14:26.840Z,23.63
2022-09-05T18:17:36.158Z,23.50
2022-09-05T18:19:45.634Z,23.44
2022-09-05T18:22:29.054Z,23.30
2022-09-05T18:25:33.179Z,23.21
2022-09-05T18:28:09.433Z,23.12
2022-09-05T18:30:36.271Z,23.04
2022-09-05T18:33:53.537Z,22.96
2022-09-05T18:35:53.945Z,22.87
2022-09-05T18:38:29.756Z,22.77
2022-09-05T18:41:15.502Z,22.73
2022-09-05T18:44:12.360Z,22.73
2022-09-05T18:46:48.688Z,22.66
2022-09-05T18:50:24.786Z,22.70
2022-09-05T18:52:13.147Z,22.68
2022-09-05T18:54:44.292Z,22.59
2022-09-05T18:57:28.526Z,22.53
2022-09-05T19:00:11.053Z,22.49
2022-09-05T19:02:51.339Z,22.46
2022-09-05T19:05:46.227Z,22.44
2022-09-05T19:08:23.789Z,22.37
2022-09-05T19:10:58.729Z,22.40
2022-09-05T19:13:34.408Z,22.32
2022-09-05T19:16:42.123Z,22.23
2022-09-05T19:19:06.077Z,22.22
2022-09-05T19:21:34.012Z,22.20
2022-09-05T19:24:04.529Z,22.16
2022-09-05T19:26:33.776Z,22.13
2022-09-05T19:36:53.409Z,22.00
2022-09-05T19:36:54.642Z,21.97
2022-09-05T19:37:06.389Z,22.04
2022-09-05T19:37:44.571Z,21.93
2022-09-05T19:47:25.569Z,21.91
2022-09-05T19:47:38.729Z,21.86
2022-09-05T19:47:56.206Z,21.86
2022-09-05T19:49:11.681Z,21.88
2022-09-05T19:51:41.207Z,21.82
2022-09-05T19:54:22.055Z,21.82
2022-09-05T19:56:48.802Z,21.97
2022-09-05T19:59:33.819Z,22.26
2022-09-05T20:02:02.785Z,22.25
2022-09-05T20:04:38.881Z,22.40
2022-09-05T20:07:17.721Z,22.47
2022-09-05T20:09:47.075Z,22.39
2022-09-05T20:12:24.151Z,22.37
2022-09-05T20:14:50.953Z,22.18
2022-09-05T20:17:28.816Z,22.06
2022-09-05T20:20:26.421Z,22.02
2022-09-05T20:23:05.768Z,21.82
2022-09-05T20:25:44.985Z,21.74
2022-09-05T20:28:15.551Z,21.66
2022-09-05T20:30:48.883Z,21.60
2022-09-05T20:33:23.343Z,21.47
2022-09-05T20:39:42.367Z,21.45
2022-09-05T20:43:17.494Z,21.38
2022-09-05T20:43:19.746Z,21.23
2022-09-05T20:44:43.081Z,21.20
2022-09-05T20:54:05.809Z,21.09
2022-09-05T20:54:09.539Z,21.15
2022-09-05T20:54:20.539Z,20.99
2022-09-05T20:56:01.888Z,20.99
2022-09-05T20:58:31.181Z,20.88
2022-09-05T21:01:22.767Z,20.84
2022-09-05T21:04:01.533Z,20.78
2022-09-05T21:06:35.308Z,20.74
2022-09-05T21:09:25.201Z,20.77
2022-09-05T21:11:55.427Z,20.64
2022-09-05T21:14:24.375Z,20.73
2022-09-05T21:17:13.361Z,20.71
2022-09-05T21:19:50.015Z,20.63
2022-09-05T21:22:20.704Z,20.66
2022-09-05T21:24:48.099Z,20.58
2022-09-05T21:27:23.082Z,20.56
2022-09-05T21:29:58.871Z,20.50
2022-09-05T21:32:30.282Z,20.44
2022-09-05T21:35:35.446Z,20.45
2022-09-05T21:37:53.880Z,20.39
2022-09-05T21:40:21.618Z,20.39
2022-09-05T21:47:38.636Z,20.25
2022-09-05T21:47:40.314Z,20.19
2022-09-05T21:48:24.453Z,20.23
2022-09-05T21:50:53.431Z,20.24
2022-09-05T21:55:06.421Z,20.28
2022-09-05T21:59:26.888Z,20.13
2022-09-05T21:59:45.317Z,20.13
2022-09-05T22:02:14.757Z,20.09
2022-09-05T22:04:42.039Z,20.02
2022-09-05T22:07:31.967Z,20.06
2022-09-05T22:10:04.240Z,19.97
2022-09-05T22:12:33.544Z,19.95
2022-09-05T22:15:26.271Z,19.88
2022-09-05T22:17:49.223Z,19.85
2022-09-05T22:20:18.513Z,19.82
2022-09-05T22:22:56.503Z,19.77
2022-09-05T22:25:28.607Z,19.74
2022-09-05T22:28:01.771Z,19.76
2022-09-05T22:30:29.023Z,19.68
2022-09-05T22:32:55.580Z,19.72
2022-09-05T22:35:28.634Z,19.69
2022-09-05T22:38:11.697Z,19.70
2022-09-05T22:40:41.753Z,19.70
2022-09-05T22:43:10.432Z,19.68
2022-09-05T22:45:38.441Z,19.73
2022-09-05T22:48:14.914Z,19.69
2022-09-05T22:50:42.485Z,19.64
2022-09-05T22:53:10.848Z,19.64
2022-09-05T22:55:42.606Z,19.57
2022-09-05T22:58:13.220Z,19.58
2022-09-05T23:00:41.740Z,19.61
2022-09-05T23:03:09.464Z,19.62
2022-09-05T23:05:36.233Z,19.62
2022-09-05T23:08:04.821Z,19.55
2022-09-05T23:10:32.194Z,19.52
2022-09-05T23:12:59.069Z,19.46
2022-09-05T23:15:26.977Z,19.48
2022-09-05T23:17:55.050Z,19.48
2022-09-05T23:20:22.374Z,19.43
2022-09-05T23:22:49.016Z,19.38
2022-09-05T23:25:15.582Z,19.36
2022-09-05T23:27:42.117Z,19.33
2022-09-05T23:30:09.530Z,19.34
2022-09-05T23:32:36.066Z,19.31
2022-09-05T23:35:02.773Z,19.29
2022-09-05T23:37:29.322Z,19.26
2022-09-05T23:39:55.886Z,19.27
2022-09-05T23:42:22.422Z,19.27
2022-09-05T23:44:48.887Z,19.33
2022-09-05T23:47:15.382Z,19.31
2022-09-05T23:49:41.882Z,19.22
2022-09-05T23:52:08.375Z,19.16
2022-09-05T23:54:34.879Z,19.11
2022-09-05T23:57:01.374Z,19.03
2022-09-05T23:59:28.992Z,19.08
